createdAt,value
2019-02-17T00:00:42.488Z,79.90
2019-02-17T00:03:11.849Z,82.73
2019-02-17T00:05:41.196Z,99.63
2019-02-17T00:08:10.578Z,98.17
2019-02-17T00:10:40.421Z,96.27
2019-02-17T00:13:09.800Z,85.03
2019-02-17T00:15:39.162Z,90.60
2019-02-17T00:18:08.587Z,86.23
2019-02-17T00:20:37.981Z,90.43
2019-02-17T00:23:07.377Z,81.43
2019-02-17T00:25:36.776Z,85.70
2019-02-17T00:28:06.269Z,116.23
2019-02-17T00:30:35.639Z,69.90
2019-02-17T00:33:05.113Z,87.27
2019-02-17T00:35:34.503Z,107.07
2019-02-17T00:38:03.795Z,142.10
2019-02-17T00:40:33.145Z,74.07
2019-02-17T00:43:02.531Z,92.13
2019-02-17T00:45:31.942Z,93.30
2019-02-17T00:48:01.298Z,98.33
2019-02-17T00:50:30.631Z,65.50
2019-02-17T00:53:00.011Z,53.10
2019-02-17T00:55:29.356Z,52.70
2019-02-17T00:57:58.732Z,59.23
2019-02-17T01:00:28.095Z,54.40
2019-02-17T01:02:57.469Z,54.27
2019-02-17T01:05:26.840Z,54.40
2019-02-17T01:07:56.173Z,55.43
2019-02-17T01:10:25.524Z,58.93
2019-02-17T01:12:54.904Z,61.97
2019-02-17T01:15:24.249Z,55.40
2019-02-17T01:17:53.653Z,54.00
2019-02-17T01:20:22.989Z,61.77
2019-02-17T01:22:52.335Z,78.37
2019-02-17T01:25:21.636Z,63.53
2019-02-17T01:27:51.476Z,72.87
2019-02-17T01:30:21.209Z,86.80
2019-02-17T01:32:50.614Z,82.30
2019-02-17T01:35:19.977Z,72.77
2019-02-17T01:37:49.307Z,70.90
2019-02-17T01:40:18.690Z,60.83
2019-02-17T01:42:48.064Z,58.37
2019-02-17T01:45:17.427Z,61.73
2019-02-17T01:47:46.787Z,60.87
2019-02-17T01:50:16.227Z,56.97
2019-02-17T01:52:45.594Z,58.33
2019-02-17T01:55:14.943Z,96.07
2019-02-17T01:57:44.649Z,335.83
2019-02-17T02:00:14.544Z,121.30
2019-02-17T02:02:43.892Z,85.47
2019-02-17T02:05:13.375Z,68.17
2019-02-17T02:07:42.747Z,58.43
2019-02-17T02:10:12.191Z,57.03
2019-02-17T02:12:41.559Z,55.53
2019-02-17T02:15:11.302Z,58.33
2019-02-17T02:17:40.642Z,58.20
2019-02-17T02:20:11.023Z,57.83
2019-02-17T02:22:40.394Z,65.03
2019-02-17T02:25:09.757Z,57.83
2019-02-17T02:27:39.099Z,55.33
2019-02-17T02:30:10.155Z,57.23
2019-02-17T02:32:39.531Z,61.37
2019-02-17T02:35:09.069Z,59.97
2019-02-17T02:37:38.435Z,61.37
2019-02-17T02:40:07.826Z,56.03
2019-02-17T02:42:37.704Z,57.03
2019-02-17T02:45:07.733Z,53.97
2019-02-17T02:47:37.131Z,55.10
2019-02-17T02:50:06.807Z,62.23
2019-02-17T02:52:36.163Z,60.37
2019-02-17T02:55:05.854Z,59.67
2019-02-17T02:57:35.252Z,59.63
2019-02-17T03:00:05.585Z,61.43
2019-02-17T03:02:34.948Z,59.63
2019-02-17T03:05:04.993Z,59.73
2019-02-17T03:07:34.347Z,66.33
2019-02-17T03:10:03.811Z,63.57
2019-02-17T03:12:33.158Z,64.63
2019-02-17T03:15:02.571Z,64.00
2019-02-17T03:17:31.915Z,59.07
2019-02-17T03:20:01.243Z,60.40
2019-02-17T03:22:30.689Z,63.90
2019-02-17T03:24:59.877Z,62.50
2019-02-17T03:27:29.148Z,61.37
2019-02-17T03:30:04.997Z,62.00
2019-02-17T03:32:29.488Z,56.70
2019-02-17T03:34:58.832Z,58.03
2019-02-17T03:37:28.177Z,57.03
2019-02-17T03:39:57.533Z,64.30
2019-02-17T03:42:27.180Z,66.33
2019-02-17T03:44:56.622Z,63.17
2019-02-17T03:47:25.960Z,70.17
2019-02-17T03:49:55.281Z,63.03
2019-02-17T03:52:24.597Z,56.57
2019-02-17T03:54:53.976Z,62.30
2019-02-17T03:57:23.610Z,60.23
2019-02-17T03:59:52.953Z,61.90
2019-02-17T04:02:22.306Z,63.60
2019-02-17T04:04:51.643Z,64.33
2019-02-17T04:07:21.132Z,66.40
2019-02-17T04:09:50.582Z,66.43
2019-02-17T04:12:20.471Z,78.47
2019-02-17T04:14:49.820Z,65.57
2019-02-17T04:17:19.078Z,64.37
2019-02-17T04:19:48.348Z,62.50
2019-02-17T04:22:17.689Z,61.53
2019-02-17T04:24:47.049Z,59.93
2019-02-17T04:27:16.401Z,62.40
2019-02-17T04:29:45.672Z,61.93
2019-02-17T04:32:14.947Z,70.87
2019-02-17T04:34:44.309Z,66.67
2019-02-17T04:37:13.644Z,63.23
2019-02-17T04:39:42.920Z,81.70
2019-02-17T04:42:12.207Z,67.03
2019-02-17T04:44:41.539Z,62.13
2019-02-17T04:47:10.865Z,64.83
2019-02-17T04:49:40.395Z,64.97
2019-02-17T04:52:09.741Z,61.00
2019-02-17T04:54:39.089Z,60.80
2019-02-17T04:57:08.427Z,56.67
2019-02-17T04:59:37.815Z,57.10
2019-02-17T05:02:07.154Z,65.13
2019-02-17T05:04:36.508Z,59.10
2019-02-17T05:07:05.900Z,56.90
2019-02-17T05:09:35.448Z,55.57
2019-02-17T05:12:04.813Z,53.97
2019-02-17T05:14:34.137Z,59.00
2019-02-17T05:17:03.474Z,58.07
2019-02-17T05:19:32.825Z,58.20
2019-02-17T05:22:02.188Z,58.10
2019-02-17T05:24:31.535Z,58.70
2019-02-17T05:27:00.891Z,60.53
2019-02-17T05:29:30.238Z,54.00
2019-02-17T05:31:59.619Z,63.33
2019-02-17T05:34:28.875Z,57.93
2019-02-17T05:36:58.227Z,63.83
2019-02-17T05:39:27.572Z,62.43
2019-02-17T05:41:56.910Z,61.27
2019-02-17T05:44:26.265Z,62.57
2019-02-17T05:46:55.586Z,67.77
2019-02-17T05:49:24.938Z,59.33
2019-02-17T05:51:54.803Z,61.23
2019-02-17T05:54:24.165Z,55.43
2019-02-17T05:56:53.547Z,59.50
2019-02-17T05:59:22.896Z,54.03
2019-02-17T06:01:52.240Z,56.13
2019-02-17T06:04:21.531Z,62.80
2019-02-17T06:06:50.888Z,90.23
2019-02-17T06:09:20.231Z,52.43
2019-02-17T06:11:49.588Z,54.43
2019-02-17T06:14:19.000Z,53.00
2019-02-17T06:16:48.603Z,51.87
2019-02-17T06:19:17.992Z,52.63
2019-02-17T06:21:47.261Z,54.73
2019-02-17T06:24:16.643Z,50.73
2019-02-17T06:26:45.981Z,55.63
2019-02-17T06:29:15.246Z,54.20
2019-02-17T06:31:44.628Z,55.60
2019-02-17T06:34:13.971Z,54.37
2019-02-17T06:36:43.307Z,58.50
2019-02-17T06:39:12.681Z,57.20
2019-02-17T06:41:42.042Z,54.30
2019-02-17T06:44:11.394Z,56.20
2019-02-17T06:46:45.482Z,66.70
2019-02-17T06:49:14.839Z,91.83
2019-02-17T06:51:44.232Z,78.30
2019-02-17T06:54:13.583Z,77.80
2019-02-17T06:56:52.930Z,71.43
2019-02-17T06:59:22.297Z,85.97
2019-02-17T07:01:51.660Z,66.53
2019-02-17T07:04:25.115Z,88.77
2019-02-17T07:06:59.021Z,73.37
2019-02-17T07:09:28.398Z,66.03
2019-02-17T07:11:57.765Z,60.93
2019-02-17T07:14:27.097Z,95.40
2019-02-17T07:16:56.469Z,79.63
2019-02-17T07:19:25.832Z,62.97
2019-02-17T07:21:55.200Z,62.03
2019-02-17T07:24:24.478Z,47.00
2019-02-17T07:26:53.861Z,56.83
2019-02-17T07:29:23.209Z,58.27
2019-02-17T07:31:52.547Z,50.07
2019-02-17T07:34:21.940Z,51.20
2019-02-17T07:36:51.328Z,49.80
2019-02-17T07:39:20.911Z,54.13
2019-02-17T07:41:50.319Z,61.00
2019-02-17T07:44:19.680Z,58.53
2019-02-17T07:46:49.055Z,55.90
2019-02-17T07:49:18.377Z,50.97
2019-02-17T07:51:47.729Z,54.47
2019-02-17T07:54:17.138Z,52.70
2019-02-17T07:56:48.405Z,46.60
2019-02-17T07:59:17.529Z,48.63
2019-02-17T08:01:46.963Z,44.50
2019-02-17T08:04:16.318Z,43.50
2019-02-17T08:06:47.744Z,46.93
2019-02-17T08:09:17.167Z,54.83
2019-02-17T08:11:47.010Z,55.25
2019-02-17T08:14:17.473Z,56.77
2019-02-17T08:16:49.169Z,43.83
2019-02-17T08:19:18.546Z,34.20
2019-02-17T08:21:49.118Z,49.27
2019-02-17T08:24:18.494Z,38.10
2019-02-17T08:26:47.856Z,36.90
2019-02-17T08:29:18.369Z,52.00
2019-02-17T08:31:55.496Z,44.53
2019-02-17T08:34:18.742Z,39.90
2019-02-17T08:36:48.164Z,42.97
2019-02-17T08:39:18.202Z,59.47
2019-02-17T08:41:47.573Z,96.73
2019-02-17T08:44:16.949Z,100.47
2019-02-17T08:46:46.319Z,77.03
2019-02-17T08:49:15.691Z,43.43
2019-02-17T08:51:45.683Z,44.63
2019-02-17T08:54:15.081Z,48.37
2019-02-17T08:56:44.446Z,49.03
2019-02-17T08:59:13.858Z,49.20
2019-02-17T09:01:43.215Z,39.50
2019-02-17T09:04:12.580Z,48.87
2019-02-17T09:06:41.946Z,54.67
2019-02-17T09:09:11.314Z,53.53
2019-02-17T09:11:41.588Z,41.87
2019-02-17T09:14:10.973Z,37.77
2019-02-17T09:16:40.656Z,39.90
2019-02-17T09:19:10.084Z,41.77
2019-02-17T09:21:39.491Z,47.33
2019-02-17T09:24:08.921Z,37.17
2019-02-17T09:26:38.289Z,40.87
2019-02-17T09:29:07.728Z,40.77
2019-02-17T09:31:37.357Z,46.77
2019-02-17T09:34:06.777Z,37.13
2019-02-17T09:36:36.172Z,41.97
2019-02-17T09:39:08.992Z,33.10
2019-02-17T09:41:38.425Z,33.77
2019-02-17T09:44:07.841Z,30.43
2019-02-17T09:46:37.216Z,46.63
2019-02-17T09:49:06.605Z,45.63
2019-02-17T09:51:36.631Z,39.87
2019-02-17T09:54:06.331Z,38.27
2019-02-17T09:56:35.750Z,33.70
2019-02-17T09:59:05.129Z,38.90
2019-02-17T10:01:34.506Z,34.07
2019-02-17T10:04:03.939Z,36.43
2019-02-17T10:06:34.137Z,31.20
2019-02-17T10:09:04.477Z,33.07
2019-02-17T10:11:33.845Z,38.87
2019-02-17T10:14:03.270Z,34.77
2019-02-17T10:16:32.641Z,37.73
2019-02-17T10:19:02.263Z,37.10
2019-02-17T10:21:31.888Z,33.57
2019-02-17T10:24:01.262Z,40.30
2019-02-17T10:26:31.382Z,38.70
2019-02-17T10:29:00.822Z,32.30
2019-02-17T10:31:30.112Z,32.73
2019-02-17T10:33:59.479Z,33.07
2019-02-17T10:36:28.881Z,37.67
2019-02-17T10:38:58.591Z,30.27
2019-02-17T10:41:27.967Z,31.00
2019-02-17T10:43:57.343Z,31.00
2019-02-17T10:46:26.696Z,28.87
2019-02-17T10:48:56.172Z,29.43
2019-02-17T10:51:26.518Z,32.87
2019-02-17T10:53:56.010Z,36.50
2019-02-17T10:56:25.375Z,30.60
2019-02-17T10:58:54.773Z,33.53
2019-02-17T11:01:24.160Z,36.67
2019-02-17T11:04:08.408Z,42.17
2019-02-17T11:06:37.852Z,51.37
2019-02-17T11:09:22.345Z,37.00
2019-02-17T11:11:51.999Z,37.10
2019-02-17T11:14:28.853Z,38.33
2019-02-17T11:16:58.719Z,38.80
2019-02-17T11:19:28.084Z,36.07
2019-02-17T11:21:57.491Z,49.00
2019-02-17T11:24:27.089Z,48.83
2019-02-17T11:26:56.469Z,51.10
2019-02-17T11:29:26.291Z,40.43
2019-02-17T11:31:55.693Z,40.63
2019-02-17T11:34:25.129Z,40.00
2019-02-17T11:36:54.498Z,34.60
2019-02-17T11:39:23.875Z,39.00
2019-02-17T11:41:53.270Z,47.60
2019-02-17T11:44:22.655Z,41.07
2019-02-17T11:46:52.078Z,41.17
2019-02-17T11:49:21.488Z,41.20
2019-02-17T11:51:50.911Z,37.90
2019-02-17T11:54:20.300Z,40.90
2019-02-17T11:56:50.016Z,55.30
2019-02-17T11:59:20.416Z,47.70
2019-02-17T12:01:49.835Z,39.47
2019-02-17T12:04:19.263Z,58.53
2019-02-17T12:06:48.948Z,45.63
2019-02-17T12:09:18.304Z,38.83
2019-02-17T12:11:47.984Z,38.40
2019-02-17T12:14:17.330Z,40.53
2019-02-17T12:16:47.180Z,38.00
2019-02-17T12:19:16.544Z,53.00
2019-02-17T12:21:53.580Z,72.00
2019-02-17T12:24:26.916Z,39.20
2019-02-17T12:27:19.583Z,36.27
2019-02-17T12:29:52.479Z,37.13
2019-02-17T12:32:25.461Z,50.73
2019-02-17T12:34:54.922Z,37.60
2019-02-17T12:37:24.305Z,41.37
2019-02-17T12:39:53.726Z,80.90
2019-02-17T12:42:23.581Z,85.83
2019-02-17T12:44:52.932Z,70.67
2019-02-17T12:47:23.195Z,69.20
2019-02-17T12:49:53.234Z,124.30
2019-02-17T12:52:22.614Z,81.83
2019-02-17T12:54:51.952Z,53.53
2019-02-17T12:57:21.421Z,39.53
2019-02-17T12:59:50.796Z,72.17
2019-02-17T13:02:22.783Z,59.50
2019-02-17T13:04:52.213Z,63.83
2019-02-17T13:07:21.615Z,37.43
2019-02-17T13:09:50.993Z,34.57
2019-02-17T13:12:20.367Z,38.27
2019-02-17T13:14:49.804Z,63.23
2019-02-17T13:17:22.768Z,43.23
2019-02-17T13:19:52.132Z,42.50
2019-02-17T13:22:21.542Z,41.70
2019-02-17T13:24:50.919Z,35.10
2019-02-17T13:27:20.290Z,37.70
2019-02-17T13:29:49.664Z,42.97
2019-02-17T13:32:19.089Z,44.40
2019-02-17T13:34:48.530Z,37.13
2019-02-17T13:37:17.926Z,35.77
2019-02-17T13:39:47.362Z,62.57
2019-02-17T13:42:19.694Z,47.77
2019-02-17T13:44:49.120Z,50.83
2019-02-17T13:47:18.534Z,48.53
2019-02-17T13:49:48.472Z,35.53
2019-02-17T13:52:17.866Z,48.50
2019-02-17T13:54:47.386Z,53.40
2019-02-17T13:57:16.803Z,62.90
2019-02-17T13:59:46.714Z,59.20
2019-02-17T14:02:16.111Z,68.47
2019-02-17T14:04:45.491Z,52.07
2019-02-17T14:07:14.926Z,56.70
2019-02-17T14:09:44.732Z,64.80
2019-02-17T14:12:14.613Z,42.97
2019-02-17T14:14:46.100Z,64.00
2019-02-17T14:17:15.854Z,61.03
2019-02-17T14:19:46.478Z,89.07
2019-02-17T14:22:15.898Z,85.60
2019-02-17T14:24:45.279Z,76.37
2019-02-17T14:27:14.648Z,90.80
2019-02-17T14:29:46.386Z,68.63
2019-02-17T14:32:15.834Z,92.37
2019-02-17T14:34:45.196Z,62.60
2019-02-17T14:37:15.043Z,55.97
2019-02-17T14:39:44.535Z,44.73
2019-02-17T14:42:13.953Z,47.33
2019-02-17T14:44:43.352Z,106.53
2019-02-17T14:47:12.772Z,104.70
2019-02-17T14:49:42.155Z,58.07
2019-02-17T14:52:11.576Z,64.67
2019-02-17T14:54:41.830Z,52.33
2019-02-17T14:57:11.227Z,110.17
2019-02-17T14:59:40.883Z,111.63
2019-02-17T15:02:10.262Z,100.33
2019-02-17T15:04:39.707Z,77.93
2019-02-17T15:07:09.091Z,91.90
2019-02-17T15:09:38.519Z,73.13
2019-02-17T15:12:07.927Z,116.83
2019-02-17T15:14:37.478Z,83.17
2019-02-17T15:17:07.458Z,79.63
2019-02-17T15:19:36.756Z,55.73
2019-02-17T15:22:06.174Z,60.80
2019-02-17T15:24:35.786Z,62.93
2019-02-17T15:27:05.220Z,71.97
2019-02-17T15:29:34.616Z,104.53
2019-02-17T15:32:06.370Z,134.10
2019-02-17T15:34:35.772Z,178.63
2019-02-17T15:37:05.207Z,136.00
2019-02-17T15:39:36.885Z,120.27
2019-02-17T15:42:06.334Z,123.43
2019-02-17T15:44:35.752Z,109.00
2019-02-17T15:47:05.153Z,107.03
2019-02-17T15:49:34.541Z,102.90
2019-02-17T15:52:04.480Z,129.90
2019-02-17T15:54:33.889Z,221.30
2019-02-17T15:57:03.338Z,151.17
2019-02-17T15:59:33.002Z,139.23
2019-02-17T16:02:02.407Z,160.80
2019-02-17T16:04:31.816Z,158.70
2019-02-17T16:07:01.735Z,251.97
2019-02-17T16:09:34.273Z,329.17
2019-02-17T16:12:04.541Z,229.47
2019-02-17T16:14:33.923Z,205.43
2019-02-17T16:17:03.312Z,263.10
2019-02-17T16:19:32.716Z,288.10
2019-02-17T16:22:04.153Z,269.93
2019-02-17T16:24:33.830Z,256.97
2019-02-17T16:27:03.190Z,338.87
2019-02-17T16:29:32.605Z,404.03
2019-02-17T16:32:02.004Z,197.70
2019-02-17T16:34:38.079Z,191.83
2019-02-17T16:37:04.184Z,213.53
2019-02-17T16:39:33.874Z,173.67
2019-02-17T16:42:03.421Z,194.23
2019-02-17T16:44:32.772Z,184.53
2019-02-17T16:47:02.141Z,255.10
2019-02-17T16:49:31.526Z,436.23
2019-02-17T16:52:00.935Z,351.27
2019-02-17T16:54:30.299Z,309.23
2019-02-17T16:56:59.691Z,261.63
2019-02-17T16:59:29.126Z,301.23
2019-02-17T17:01:58.494Z,649.70
2019-02-17T17:04:28.280Z,655.20
2019-02-17T17:06:57.656Z,945.23
2019-02-17T17:09:27.058Z,1710.23
2019-02-17T17:11:56.485Z,1558.87
2019-02-17T17:14:25.933Z,1243.13
2019-02-17T17:16:55.293Z,1448.63
2019-02-17T17:19:24.708Z,651.80
2019-02-17T17:21:54.151Z,704.07
2019-02-17T17:24:23.972Z,783.13
2019-02-17T17:26:53.509Z,794.60
2019-02-17T17:29:22.883Z,439.57
2019-02-17T17:31:52.297Z,555.23
2019-02-17T17:34:22.854Z,276.33
2019-02-17T17:36:52.236Z,392.67
2019-02-17T17:39:22.084Z,422.53
2019-02-17T17:41:51.621Z,891.60
2019-02-17T17:44:21.062Z,645.30
2019-02-17T17:46:50.458Z,516.93
2019-02-17T17:49:19.966Z,444.90
2019-02-17T17:51:49.376Z,480.27
2019-02-17T17:54:20.858Z,525.73
2019-02-17T17:56:50.312Z,879.47
2019-02-17T17:59:21.780Z,841.93
2019-02-17T18:01:51.714Z,525.97
2019-02-17T18:04:21.169Z,474.20
2019-02-17T18:06:50.635Z,618.33
2019-02-17T18:09:20.043Z,474.10
2019-02-17T18:11:49.458Z,469.00
2019-02-17T18:14:19.387Z,447.83
2019-02-17T18:16:48.794Z,268.93
2019-02-17T18:19:18.278Z,242.17
2019-02-17T18:21:48.062Z,232.13
2019-02-17T18:24:17.709Z,394.20
2019-02-17T18:26:47.242Z,423.17
2019-02-17T18:29:16.783Z,704.40
2019-02-17T18:31:46.739Z,1643.77
2019-02-17T18:34:16.494Z,1681.10
2019-02-17T18:36:45.953Z,862.73
2019-02-17T18:39:15.356Z,1125.87
2019-02-17T18:41:44.857Z,1517.93
2019-02-17T18:44:14.537Z,1266.60
2019-02-17T18:46:43.981Z,542.90
2019-02-17T18:49:14.552Z,517.20
2019-02-17T18:51:44.193Z,407.10
2019-02-17T18:54:13.598Z,519.70
2019-02-17T18:56:43.012Z,556.83
2019-02-17T18:59:12.461Z,544.67
2019-02-17T19:01:42.147Z,535.67
2019-02-17T19:04:11.624Z,878.53
2019-02-17T19:06:40.998Z,786.37
2019-02-17T19:09:10.478Z,817.30
2019-02-17T19:11:40.394Z,663.30
2019-02-17T19:14:09.868Z,830.60
2019-02-17T19:16:39.258Z,594.33
2019-02-17T19:19:08.704Z,613.93
2019-02-17T19:21:38.158Z,566.67
2019-02-17T19:24:07.555Z,437.80
2019-02-17T19:26:37.814Z,298.60
2019-02-17T19:29:09.504Z,230.73
2019-02-17T19:31:38.904Z,286.33
2019-02-17T19:34:10.842Z,337.03
2019-02-17T19:36:40.614Z,214.17
2019-02-17T19:39:10.110Z,189.87
2019-02-17T19:41:39.540Z,664.50
2019-02-17T19:44:09.184Z,374.20
2019-02-17T19:46:38.592Z,369.83
2019-02-17T19:49:08.191Z,365.20
2019-02-17T19:51:38.360Z,714.63
2019-02-17T19:54:07.760Z,1323.93
2019-02-17T19:56:39.814Z,747.50
2019-02-17T19:59:09.732Z,979.70
2019-02-17T20:01:39.174Z,580.47
2019-02-17T20:04:30.346Z,369.63
2019-02-17T20:07:00.026Z,264.03
2019-02-17T20:09:29.475Z,255.97
2019-02-17T20:11:59.236Z,283.93
2019-02-17T20:14:28.682Z,485.80
2019-02-17T20:16:58.439Z,324.87
2019-02-17T20:19:27.819Z,215.10
2019-02-17T20:21:57.214Z,335.30
2019-02-17T20:24:26.843Z,259.43
2019-02-17T20:26:56.213Z,343.50
2019-02-17T20:29:26.101Z,169.53
2019-02-17T20:31:55.573Z,173.30
2019-02-17T20:34:25.266Z,183.33
2019-02-17T20:36:54.930Z,174.70
2019-02-17T20:39:24.374Z,174.73
2019-02-17T20:41:53.756Z,195.83
2019-02-17T20:44:24.345Z,161.10
2019-02-17T20:46:54.064Z,158.83
2019-02-17T20:49:23.506Z,156.40
2019-02-17T20:51:52.900Z,152.67
2019-02-17T20:54:22.292Z,153.10
2019-02-17T20:56:51.683Z,168.87
2019-02-17T20:59:21.231Z,189.27
2019-02-17T21:01:52.876Z,189.63
2019-02-17T21:04:22.302Z,198.57
2019-02-17T21:06:51.718Z,128.83
2019-02-17T21:09:21.137Z,109.07
2019-02-17T21:11:50.854Z,155.53
2019-02-17T21:14:20.635Z,209.43
2019-02-17T21:16:50.550Z,313.03
2019-02-17T21:19:19.977Z,341.57
2019-02-17T21:21:49.460Z,331.10
2019-02-17T21:24:18.865Z,336.67
2019-02-17T21:26:48.758Z,319.10
2019-02-17T21:29:18.241Z,347.23
2019-02-17T21:31:47.609Z,284.83
2019-02-17T21:34:17.127Z,277.73
2019-02-17T21:36:46.640Z,302.27
2019-02-17T21:39:16.104Z,409.20
2019-02-17T21:41:45.478Z,395.70
2019-02-17T21:44:16.747Z,382.10
2019-02-17T21:46:46.120Z,309.23
2019-02-17T21:49:15.603Z,364.20
2019-02-17T21:51:44.994Z,298.77
2019-02-17T21:54:14.671Z,239.53
2019-02-17T21:56:44.237Z,416.90
2019-02-17T21:59:16.217Z,635.10
2019-02-17T22:01:45.618Z,350.60
2019-02-17T22:04:15.026Z,608.07
2019-02-17T22:06:44.489Z,461.93
2019-02-17T22:09:14.444Z,334.87
2019-02-17T22:11:43.836Z,128.50
2019-02-17T22:14:13.544Z,180.00
2019-02-17T22:16:42.943Z,192.33
2019-02-17T22:19:12.309Z,134.43
2019-02-17T22:21:41.755Z,139.60
2019-02-17T22:24:11.128Z,134.67
2019-02-17T22:26:40.508Z,171.37
2019-02-17T22:29:09.848Z,331.40
2019-02-17T22:31:39.241Z,1068.83
2019-02-17T22:34:08.633Z,898.27
2019-02-17T22:36:43.830Z,491.13
2019-02-17T22:39:09.162Z,354.20
2019-02-17T22:41:38.868Z,359.93
2019-02-17T22:44:08.396Z,254.43
2019-02-17T22:46:37.887Z,103.17
2019-02-17T22:49:07.245Z,86.80
2019-02-17T22:51:36.633Z,92.03
2019-02-17T22:54:05.983Z,96.23
2019-02-17T22:56:35.613Z,105.53
2019-02-17T22:59:05.048Z,110.53
2019-02-17T23:01:35.105Z,100.97
2019-02-17T23:04:04.475Z,141.77
2019-02-17T23:06:33.845Z,187.27
2019-02-17T23:09:03.270Z,133.20
2019-02-17T23:11:32.646Z,211.90
2019-02-17T23:14:04.232Z,191.70
2019-02-17T23:16:33.314Z,156.57
2019-02-17T23:19:02.724Z,177.47
2019-02-17T23:21:32.061Z,154.37
2019-02-17T23:24:01.424Z,169.23
2019-02-17T23:26:30.853Z,127.67
2019-02-17T23:29:00.264Z,130.40
2019-02-17T23:31:30.038Z,99.17
2019-02-17T23:34:00.229Z,84.80
2019-02-17T23:36:29.556Z,87.80
2019-02-17T23:38:59.141Z,90.17
2019-02-17T23:41:28.479Z,85.80
2019-02-17T23:43:57.836Z,81.60
2019-02-17T23:46:27.192Z,85.57
2019-02-17T23:48:56.468Z,84.27
2019-02-17T23:51:25.831Z,86.70
2019-02-17T23:53:55.185Z,102.50
2019-02-17T23:56:24.552Z,114.20
2019-02-17T23:58:53.914Z,85.97
